createdAt,value
2024-05-09T00:02:05.342Z,6.10
2024-05-09T00:05:08.163Z,6.68
2024-05-09T00:08:18.951Z,7.63
2024-05-09T00:11:21.320Z,5.90
2024-05-09T00:14:23.369Z,6.45
2024-05-09T00:17:25.536Z,6.13
2024-05-09T00:20:35.967Z,5.68
2024-05-09T00:23:45.481Z,5.50
2024-05-09T00:26:47.436Z,5.80
2024-05-09T00:29:49.343Z,5.82
2024-05-09T00:32:51.659Z,5.72
2024-05-09T00:35:53.806Z,5.72
2024-05-09T00:38:55.640Z,6.13
2024-05-09T00:41:57.578Z,6.10
2024-05-09T00:44:59.440Z,6.32
2024-05-09T00:48:02.985Z,5.70
2024-05-09T00:51:05.748Z,6.35
2024-05-09T00:54:07.624Z,6.27
2024-05-09T00:57:09.554Z,5.40
2024-05-09T01:00:22.438Z,6.40
2024-05-09T01:03:32.768Z,7.65
2024-05-09T01:06:34.905Z,7.03
2024-05-09T01:09:36.880Z,8.07
2024-05-09T01:12:39.111Z,7.97
2024-05-09T01:15:41.131Z,8.02
2024-05-09T01:18:43.267Z,7.82
2024-05-09T01:21:45.248Z,6.38
2024-05-09T01:24:50.706Z,6.80
2024-05-09T01:27:52.654Z,6.00
2024-05-09T01:30:54.636Z,5.63
2024-05-09T01:33:56.687Z,5.93
2024-05-09T01:36:58.710Z,8.18
2024-05-09T01:40:00.592Z,6.33
2024-05-09T01:43:02.506Z,6.57
2024-05-09T01:46:04.541Z,7.32
2024-05-09T01:49:06.563Z,5.82
2024-05-09T01:52:08.636Z,7.32
2024-05-09T01:55:14.377Z,6.43
2024-05-09T01:58:16.455Z,6.87
2024-05-09T02:01:18.290Z,6.68
2024-05-09T02:04:20.447Z,6.75
2024-05-09T02:07:22.515Z,7.13
2024-05-09T02:10:32.536Z,8.57
2024-05-09T02:13:35.254Z,5.67
2024-05-09T02:16:37.162Z,7.25
2024-05-09T02:19:39.169Z,6.43
2024-05-09T02:22:41.089Z,5.93
2024-05-09T02:25:46.143Z,8.53
2024-05-09T02:28:48.158Z,6.37
2024-05-09T02:31:50.103Z,6.30
2024-05-09T02:34:52.170Z,8.82
2024-05-09T02:37:54.144Z,8.80
2024-05-09T02:40:59.232Z,7.77
2024-05-09T02:44:01.141Z,6.50
2024-05-09T02:47:03.159Z,8.05
2024-05-09T02:50:07.795Z,6.68
2024-05-09T02:53:13.851Z,7.13
2024-05-09T02:56:20.573Z,6.20
2024-05-09T02:59:22.676Z,7.77
2024-05-09T03:02:24.797Z,6.55
2024-05-09T03:05:26.851Z,6.47
2024-05-09T03:08:28.977Z,7.53
2024-05-09T03:11:34.632Z,7.37
2024-05-09T03:14:36.623Z,7.33
2024-05-09T03:17:40.718Z,7.05
2024-05-09T03:20:44.824Z,8.00
2024-05-09T03:23:47.037Z,9.00
2024-05-09T03:26:52.226Z,7.30
2024-05-09T03:29:54.189Z,8.53
2024-05-09T03:32:56.258Z,8.65
2024-05-09T03:35:58.203Z,6.13
2024-05-09T03:39:00.120Z,7.57
2024-05-09T03:42:06.300Z,8.50
2024-05-09T03:45:08.355Z,7.70
2024-05-09T03:48:10.566Z,7.88
2024-05-09T03:51:12.613Z,8.27
2024-05-09T03:54:14.760Z,9.82
2024-05-09T03:57:20.587Z,8.47
2024-05-09T04:00:30.982Z,7.60
2024-05-09T04:03:39.873Z,9.38
2024-05-09T04:06:43.440Z,7.88
2024-05-09T04:09:45.269Z,7.80
2024-05-09T04:12:50.043Z,7.90
2024-05-09T04:15:51.904Z,7.10
2024-05-09T04:18:58.433Z,6.53
2024-05-09T04:22:00.424Z,6.63
2024-05-09T04:25:02.388Z,7.20
2024-05-09T04:28:08.551Z,8.33
2024-05-09T04:31:10.496Z,7.00
2024-05-09T04:34:12.712Z,9.43
2024-05-09T04:37:14.944Z,8.77
2024-05-09T04:40:24.350Z,7.78
2024-05-09T04:43:38.822Z,7.77
2024-05-09T04:46:40.692Z,8.00
2024-05-09T04:49:42.671Z,8.35
2024-05-09T04:52:44.703Z,7.43
2024-05-09T04:55:46.815Z,6.78
2024-05-09T04:58:49.840Z,8.00
2024-05-09T05:01:51.832Z,9.63
2024-05-09T05:04:54.070Z,8.25
2024-05-09T05:07:56.241Z,8.70
2024-05-09T05:10:58.488Z,9.30
2024-05-09T05:14:00.576Z,9.80
2024-05-09T05:17:02.501Z,9.07
2024-05-09T05:20:05.880Z,9.38
2024-05-09T05:23:11.479Z,9.07
2024-05-09T05:26:13.591Z,8.60
2024-05-09T05:29:18.516Z,8.10
2024-05-09T05:32:21.526Z,9.87
2024-05-09T05:35:26.423Z,8.38
2024-05-09T05:38:28.894Z,7.28
2024-05-09T05:41:31.094Z,9.77
2024-05-09T05:44:33.443Z,7.67
2024-05-09T05:47:37.074Z,7.83
2024-05-09T05:50:42.915Z,6.78
2024-05-09T05:53:45.101Z,8.75
2024-05-09T05:56:47.160Z,7.97
2024-05-09T05:59:49.168Z,8.07
2024-05-09T06:02:51.147Z,7.80
2024-05-09T06:05:53.249Z,5.93
2024-05-09T06:08:55.220Z,7.30
2024-05-09T06:11:57.235Z,5.50
2024-05-09T06:15:00.668Z,6.73
2024-05-09T06:18:05.943Z,5.83
2024-05-09T06:21:08.258Z,5.07
2024-05-09T06:24:10.119Z,4.93
2024-05-09T06:27:12.062Z,4.60
2024-05-09T06:30:24.930Z,3.67
2024-05-09T06:33:32.036Z,6.73
2024-05-09T06:36:34.101Z,5.25
2024-05-09T06:39:36.156Z,4.63
2024-05-09T06:42:38.001Z,5.38
2024-05-09T06:45:40.414Z,5.07
2024-05-09T06:48:43.341Z,4.83
2024-05-09T06:51:45.411Z,5.47
2024-05-09T06:54:47.310Z,5.45
2024-05-09T06:57:49.324Z,3.95
2024-05-09T07:00:51.551Z,4.90
2024-05-09T07:03:53.589Z,4.70
2024-05-09T07:06:55.571Z,6.57
2024-05-09T07:09:57.429Z,4.10
2024-05-09T07:13:02.514Z,4.80
2024-05-09T07:16:04.801Z,5.37
2024-05-09T07:19:07.269Z,3.87
2024-05-09T07:22:09.388Z,4.88
2024-05-09T07:25:11.309Z,5.65
2024-05-09T07:28:17.325Z,4.70
2024-05-09T07:31:19.270Z,5.83
2024-05-09T07:34:21.849Z,4.70
2024-05-09T07:37:23.954Z,5.22
2024-05-09T07:40:33.126Z,4.57
2024-05-09T07:43:38.590Z,4.53
2024-05-09T07:47:47.749Z,6.17
2024-05-09T07:51:54.744Z,5.97
2024-05-09T07:56:30.181Z,4.30
2024-05-09T07:59:37.645Z,4.65
2024-05-09T08:02:39.973Z,6.57
2024-05-09T08:05:42.266Z,5.23
2024-05-09T08:08:46.772Z,5.78
2024-05-09T08:11:51.035Z,4.60
2024-05-09T08:14:54.774Z,4.22
2024-05-09T08:17:57.159Z,3.80
2024-05-09T08:20:59.892Z,5.67
2024-05-09T08:24:02.011Z,4.72
2024-05-09T08:27:04.040Z,3.55
2024-05-09T08:30:10.100Z,4.07
2024-05-09T08:33:12.379Z,4.17
2024-05-09T08:36:15.146Z,4.97
2024-05-09T08:39:17.903Z,4.32
2024-05-09T08:42:19.900Z,5.75
2024-05-09T08:45:22.293Z,3.92
2024-05-09T08:48:24.918Z,4.80
2024-05-09T08:51:27.599Z,3.80
2024-05-09T08:54:30.553Z,5.03
2024-05-09T08:57:32.457Z,3.92
2024-05-09T09:00:37.278Z,5.20
2024-05-09T09:03:40.465Z,3.83
2024-05-09T09:06:42.591Z,5.07
2024-05-09T09:09:45.313Z,5.63
2024-05-09T09:12:55.031Z,8.50
2024-05-09T09:16:00.372Z,3.65
2024-05-09T09:19:05.397Z,5.70
2024-05-09T09:22:07.529Z,3.83
2024-05-09T09:25:09.716Z,4.75
2024-05-09T09:28:12.789Z,4.47
2024-05-09T09:31:21.183Z,4.93
2024-05-09T09:34:28.070Z,6.87
2024-05-09T09:37:30.533Z,5.50
2024-05-09T09:40:40.800Z,5.10
2024-05-09T09:43:47.005Z,6.10
2024-05-09T09:46:50.305Z,6.13
2024-05-09T09:49:52.377Z,3.77
2024-05-09T09:52:54.498Z,4.97
2024-05-09T09:55:56.450Z,7.75
2024-05-09T09:58:58.300Z,4.22
2024-05-09T10:02:00.600Z,4.55
2024-05-09T10:05:02.938Z,3.63
2024-05-09T10:08:06.692Z,4.37
2024-05-09T10:11:08.656Z,4.35
2024-05-09T10:14:10.674Z,8.10
2024-05-09T10:17:12.818Z,6.00
2024-05-09T10:20:21.615Z,5.90
2024-05-09T10:23:32.642Z,5.50
2024-05-09T10:26:38.384Z,4.60
2024-05-09T10:29:50.955Z,4.05
2024-05-09T10:32:54.816Z,5.15
2024-05-09T10:35:56.748Z,4.43
2024-05-09T10:38:58.632Z,4.93
2024-05-09T10:42:00.610Z,4.03
2024-05-09T10:45:02.610Z,4.32
2024-05-09T10:48:05.120Z,4.03
2024-05-09T10:51:08.043Z,4.20
2024-05-09T10:54:09.941Z,4.63
2024-05-09T10:57:12.385Z,4.45
2024-05-09T11:00:23.242Z,6.60
2024-05-09T11:03:32.280Z,3.97
2024-05-09T11:06:36.317Z,5.40
2024-05-09T11:09:38.758Z,5.60
2024-05-09T11:12:46.056Z,5.15
2024-05-09T11:15:48.053Z,4.45
2024-05-09T11:18:55.356Z,6.18
2024-05-09T11:22:01.952Z,5.63
2024-05-09T11:25:04.725Z,4.87
2024-05-09T11:28:07.434Z,5.05
2024-05-09T11:31:10.547Z,6.57
2024-05-09T11:34:13.265Z,4.90
2024-05-09T11:37:15.363Z,4.77
2024-05-09T11:40:24.929Z,5.23
2024-05-09T11:43:30.405Z,7.35
2024-05-09T11:46:32.443Z,5.60
2024-05-09T11:49:38.732Z,4.38
2024-05-09T11:52:44.008Z,5.43
2024-05-09T11:55:46.337Z,6.27
2024-05-09T11:58:48.365Z,5.45
2024-05-09T12:01:50.489Z,3.22
2024-05-09T12:04:55.957Z,4.07
2024-05-09T12:07:58.091Z,3.53
2024-05-09T12:11:00.941Z,4.53
2024-05-09T12:14:03.076Z,4.50
2024-05-09T12:17:05.858Z,3.88
2024-05-09T12:20:14.284Z,4.18
2024-05-09T12:23:23.133Z,6.97
2024-05-09T12:26:25.120Z,6.90
2024-05-09T12:29:27.348Z,6.20
2024-05-09T12:32:29.430Z,4.15
2024-05-09T12:35:31.488Z,3.88
2024-05-09T12:38:33.481Z,5.13
2024-05-09T12:41:35.822Z,4.13
2024-05-09T12:44:37.691Z,4.60
2024-05-09T12:47:39.655Z,4.07
2024-05-09T12:50:42.075Z,3.95
2024-05-09T12:53:44.225Z,3.90
2024-05-09T12:56:46.198Z,3.00
2024-05-09T12:59:48.331Z,3.15
2024-05-09T13:02:50.244Z,3.15
2024-05-09T13:05:56.860Z,4.10
2024-05-09T13:08:58.768Z,4.90
2024-05-09T13:12:00.777Z,5.10
2024-05-09T13:15:02.687Z,6.07
2024-05-09T13:18:05.164Z,3.60
2024-05-09T13:21:11.068Z,4.95
2024-05-09T13:24:13.201Z,7.07
2024-05-09T13:27:15.139Z,5.37
2024-05-09T13:30:25.905Z,3.53
2024-05-09T13:33:33.064Z,2.97
2024-05-09T13:36:38.804Z,2.78
2024-05-09T13:39:40.797Z,4.63
2024-05-09T13:42:43.920Z,5.40
2024-05-09T13:45:46.829Z,3.38
2024-05-09T13:48:49.047Z,3.17
2024-05-09T13:51:51.205Z,3.53
2024-05-09T13:54:53.329Z,3.90
2024-05-09T13:57:55.640Z,3.27
2024-05-09T14:00:58.504Z,3.22
2024-05-09T14:04:00.588Z,3.17
2024-05-09T14:07:06.848Z,3.45
2024-05-09T14:10:19.460Z,3.70
2024-05-09T14:13:25.009Z,4.30
2024-05-09T14:16:27.258Z,5.55
2024-05-09T14:19:29.242Z,3.10
2024-05-09T14:22:31.105Z,4.03
2024-05-09T14:25:36.773Z,4.23
2024-05-09T14:28:40.946Z,3.20
2024-05-09T14:31:43.106Z,4.32
2024-05-09T14:34:45.849Z,5.45
2024-05-09T14:37:52.000Z,3.08
2024-05-09T14:40:54.004Z,4.87
2024-05-09T14:43:56.079Z,3.73
2024-05-09T14:46:57.986Z,3.55
2024-05-09T14:50:00.976Z,3.47
2024-05-09T14:53:02.910Z,3.97
2024-05-09T14:56:05.212Z,3.80
2024-05-09T14:59:08.528Z,4.50
2024-05-09T15:02:11.002Z,6.65
2024-05-09T15:05:13.222Z,2.90
2024-05-09T15:08:18.960Z,3.47
2024-05-09T15:11:21.087Z,6.03
2024-05-09T15:14:23.515Z,2.67
2024-05-09T15:17:25.461Z,3.00
2024-05-09T15:20:34.226Z,2.47
2024-05-09T15:23:38.334Z,5.30
2024-05-09T15:26:40.212Z,3.03
2024-05-09T15:29:42.072Z,3.10
2024-05-09T15:32:44.043Z,3.65
2024-05-09T15:35:47.262Z,3.85
2024-05-09T15:38:52.797Z,4.32
2024-05-09T15:41:56.556Z,3.50
2024-05-09T15:44:58.586Z,4.87
2024-05-09T15:48:00.737Z,3.65
2024-05-09T15:51:02.805Z,3.45
2024-05-09T15:54:05.741Z,3.30
2024-05-09T15:57:08.082Z,4.73
2024-05-09T16:00:18.289Z,4.93
2024-05-09T16:03:27.145Z,2.97
2024-05-09T16:06:29.175Z,3.92
2024-05-09T16:09:34.465Z,4.53
2024-05-09T16:12:36.415Z,6.17
2024-05-09T16:15:38.594Z,4.10
2024-05-09T16:18:40.827Z,3.40
2024-05-09T16:21:42.807Z,4.00
2024-05-09T16:24:44.700Z,5.50
2024-05-09T16:27:49.590Z,4.53
2024-05-09T16:30:51.651Z,3.47
2024-05-09T16:33:53.769Z,4.18
2024-05-09T16:36:55.756Z,3.08
2024-05-09T16:40:01.797Z,4.30
2024-05-09T16:43:04.420Z,4.80
2024-05-09T16:46:06.697Z,5.00
2024-05-09T16:49:09.329Z,5.05
2024-05-09T16:52:11.331Z,5.68
2024-05-09T16:55:13.407Z,3.08
2024-05-09T16:58:15.367Z,2.97
2024-05-09T17:01:17.354Z,4.03
2024-05-09T17:04:19.556Z,3.83
2024-05-09T17:07:21.597Z,4.57
2024-05-09T17:10:32.849Z,5.30
2024-05-09T17:13:39.396Z,4.50
2024-05-09T17:16:41.409Z,3.30
2024-05-09T17:19:45.015Z,3.35
2024-05-09T17:22:47.020Z,2.75
2024-05-09T17:25:48.953Z,3.03
2024-05-09T17:28:50.878Z,4.67
2024-05-09T17:31:52.916Z,4.33
2024-05-09T17:34:54.833Z,4.05
2024-05-09T17:37:56.832Z,3.50
2024-05-09T17:40:59.090Z,4.13
2024-05-09T17:44:03.440Z,3.07
2024-05-09T17:47:05.420Z,4.73
2024-05-09T17:50:11.647Z,3.63
2024-05-09T17:53:16.923Z,3.42
2024-05-09T17:56:18.833Z,5.40
2024-05-09T17:59:20.743Z,4.73
2024-05-09T18:02:23.064Z,3.27
2024-05-09T18:05:25.326Z,3.78
2024-05-09T18:08:27.383Z,6.15
2024-05-09T18:11:33.346Z,5.57
2024-05-09T18:14:35.235Z,4.50
2024-05-09T18:17:37.394Z,2.97
2024-05-09T18:20:44.033Z,4.60
2024-05-09T18:23:47.993Z,3.80
2024-05-09T18:26:49.926Z,5.57
2024-05-09T18:29:51.832Z,6.20
2024-05-09T18:32:53.795Z,4.77
2024-05-09T18:35:55.881Z,4.25
2024-05-09T18:38:57.771Z,5.78
2024-05-09T18:42:05.027Z,5.55
2024-05-09T18:45:07.194Z,4.03
2024-05-09T18:48:10.370Z,5.00
2024-05-09T18:51:12.388Z,4.40
2024-05-09T18:54:15.187Z,4.85
2024-05-09T18:57:17.429Z,6.15
2024-05-09T19:00:31.055Z,5.10
2024-05-09T19:03:37.779Z,4.40
2024-05-09T19:06:41.024Z,3.25
2024-05-09T19:09:43.050Z,4.20
2024-05-09T19:12:49.431Z,4.43
2024-05-09T19:15:51.356Z,5.20
2024-05-09T19:18:54.061Z,4.43
2024-05-09T19:21:59.255Z,3.17
2024-05-09T19:25:01.430Z,4.45
2024-05-09T19:28:04.024Z,4.65
2024-05-09T19:31:06.244Z,4.20
2024-05-09T19:34:08.226Z,4.47
2024-05-09T19:37:10.262Z,4.57
2024-05-09T19:40:20.862Z,5.80
2024-05-09T19:43:36.118Z,4.57
2024-05-09T19:46:38.260Z,4.57
2024-05-09T19:49:40.510Z,4.53
2024-05-09T19:52:42.560Z,5.72
2024-05-09T19:55:44.520Z,5.13
2024-05-09T19:58:47.575Z,5.25
2024-05-09T20:01:49.770Z,4.83
2024-05-09T20:04:51.881Z,4.27
2024-05-09T20:07:53.811Z,6.82
2024-05-09T20:10:56.213Z,4.53
2024-05-09T20:14:01.999Z,4.60
2024-05-09T20:17:03.994Z,4.73
2024-05-09T20:20:11.330Z,3.90
2024-05-09T20:23:18.284Z,4.35
2024-05-09T20:26:20.257Z,4.65
2024-05-09T20:29:25.043Z,6.03
2024-05-09T20:32:27.199Z,4.40
2024-05-09T20:35:32.058Z,4.50
2024-05-09T20:38:34.291Z,5.07
2024-05-09T20:41:37.144Z,4.07
2024-05-09T20:44:42.667Z,6.05
2024-05-09T20:47:44.640Z,3.90
2024-05-09T20:50:46.811Z,4.27
2024-05-09T20:53:48.741Z,3.95
2024-05-09T20:56:50.614Z,4.50
2024-05-09T20:59:52.543Z,4.38
2024-05-09T21:02:54.499Z,4.47
2024-05-09T21:05:56.470Z,5.73
2024-05-09T21:08:58.852Z,5.30
2024-05-09T21:12:00.924Z,6.07
2024-05-09T21:15:07.208Z,3.65
2024-05-09T21:18:09.183Z,4.37
2024-05-09T21:21:11.357Z,3.60
2024-05-09T21:24:13.323Z,5.45
2024-05-09T21:27:15.360Z,3.58
2024-05-09T21:30:32.322Z,3.50
2024-05-09T21:33:42.437Z,4.20
2024-05-09T21:36:44.495Z,3.27
2024-05-09T21:39:46.501Z,4.40
2024-05-09T21:42:49.109Z,4.68
2024-05-09T21:45:51.062Z,4.63
2024-05-09T21:48:53.774Z,4.83
2024-05-09T21:51:55.792Z,3.13
2024-05-09T21:54:57.877Z,4.53
2024-05-09T21:57:59.899Z,4.00
2024-05-09T22:01:02.052Z,3.97
2024-05-09T22:04:04.422Z,3.53
2024-05-09T22:07:07.088Z,6.70
2024-05-09T22:10:19.579Z,4.28
2024-05-09T22:13:24.959Z,4.45
2024-05-09T22:16:27.004Z,4.40
2024-05-09T22:19:30.063Z,3.77
2024-05-09T22:22:31.953Z,5.50
2024-05-09T22:25:34.177Z,4.20
2024-05-09T22:28:36.251Z,4.30
2024-05-09T22:31:38.221Z,5.85
2024-05-09T22:34:40.229Z,4.60
2024-05-09T22:37:42.136Z,4.53
2024-05-09T22:40:48.360Z,4.68
2024-05-09T22:43:51.849Z,5.03
2024-05-09T22:46:53.795Z,4.97
2024-05-09T22:49:55.758Z,5.53
2024-05-09T22:52:57.683Z,4.30
2024-05-09T22:55:59.538Z,4.90
2024-05-09T22:59:01.600Z,4.43
2024-05-09T23:02:07.511Z,5.82
2024-05-09T23:05:09.974Z,3.53
2024-05-09T23:08:12.076Z,5.63
2024-05-09T23:11:14.300Z,4.35
2024-05-09T23:14:16.212Z,4.22
2024-05-09T23:17:18.272Z,4.13
2024-05-09T23:20:29.912Z,6.23
2024-05-09T23:23:38.760Z,5.80
2024-05-09T23:26:44.091Z,6.68
2024-05-09T23:29:47.096Z,6.53
2024-05-09T23:32:49.179Z,6.22
2024-05-09T23:35:55.316Z,7.30
2024-05-09T23:38:57.162Z,5.60
2024-05-09T23:42:02.682Z,6.75
2024-05-09T23:45:04.990Z,7.00
2024-05-09T23:48:07.574Z,7.43
2024-05-09T23:51:09.815Z,6.57
2024-05-09T23:54:11.710Z,6.07
2024-05-09T23:57:13.551Z,6.97
